createdAt,value
2022-12-13T00:00:01.845Z,8.08
2022-12-13T00:05:17.497Z,8.28
2022-12-13T00:10:32.237Z,8.28
2022-12-13T00:15:47.113Z,8.43
2022-12-13T00:20:13.264Z,8.43
2022-12-13T00:24:46.462Z,8.24
2022-12-13T00:29:54.813Z,8.24
2022-12-13T00:35:03.272Z,8.48
2022-12-13T00:40:13.030Z,8.48
2022-12-13T00:45:22.836Z,8.28
2022-12-13T00:50:32.542Z,8.28
2022-12-13T00:55:41.693Z,8.36
2022-12-13T01:00:51.477Z,8.39
2022-12-13T01:06:18.006Z,8.39
2022-12-13T01:11:11.574Z,8.38
2022-12-13T01:16:19.756Z,8.38
2022-12-13T01:21:30.134Z,8.28
2022-12-13T01:26:37.032Z,8.28
2022-12-13T01:31:47.459Z,8.27
2022-12-13T01:36:59.179Z,8.27
2022-12-13T01:42:05.649Z,8.28
2022-12-13T01:47:15.434Z,8.28
2022-12-13T01:52:24.549Z,8.4
2022-12-13T01:57:34.308Z,8.4
2022-12-13T02:02:43.419Z,8.32
2022-12-13T02:07:52.201Z,8.32
2022-12-13T02:13:01.673Z,8.47
2022-12-13T02:18:10.138Z,8.47
2022-12-13T02:23:20.530Z,8.14
2022-12-13T02:28:32.607Z,8.14
2022-12-13T02:33:39.006Z,8.04
2022-12-13T02:38:47.898Z,8.04
2022-12-13T02:44:01.916Z,8.27
2022-12-13T02:49:06.156Z,8.27
2022-12-13T02:54:15.897Z,8.04
2022-12-13T02:59:24.373Z,8.04
2022-12-13T03:04:33.516Z,8.15
2022-12-13T03:09:42.651Z,8.15
2022-12-13T03:14:51.100Z,8.17
2022-12-13T03:20:00.845Z,8.17
2022-12-13T03:25:10.952Z,8.36
2022-12-13T03:30:26.496Z,8.36
2022-12-13T03:35:46.468Z,8.2
2022-12-13T03:40:59.447Z,8.2
2022-12-13T03:46:14.999Z,7.95
2022-12-13T03:51:55.463Z,7.95
2022-12-13T03:56:47.498Z,7.98
2022-12-13T04:02:03.450Z,7.96
2022-12-13T04:07:22.818Z,7.96
2022-12-13T04:12:33.826Z,7.99
2022-12-13T04:17:51.090Z,7.99
2022-12-13T04:23:09.864Z,7.93
2022-12-13T04:28:21.409Z,7.93
2022-12-13T04:32:27.693Z,7.74
2022-12-13T04:37:15.720Z,7.74
2022-12-13T04:42:25.546Z,7.79
2022-12-13T04:47:33.977Z,7.79
2022-12-13T04:52:43.750Z,7.93
2022-12-13T04:57:53.527Z,7.93
2022-12-13T05:03:01.992Z,7.91
2022-12-13T05:08:12.123Z,7.91
2022-12-13T05:13:20.209Z,7.49
2022-12-13T05:18:29.342Z,7.49
2022-12-13T05:23:38.492Z,7.72
2022-12-13T05:28:46.935Z,7.72
2022-12-13T05:34:02.018Z,7.83
2022-12-13T05:39:03.916Z,7.83
2022-12-13T05:44:13.039Z,7.83
2022-12-13T05:49:22.776Z,7.83
2022-12-13T05:54:32.550Z,7.22
2022-12-13T05:59:42.293Z,7.22
2022-12-13T06:04:51.464Z,7.45
2022-12-13T06:10:11.355Z,7.45
2022-12-13T06:15:23.271Z,7.47
2022-12-13T06:20:25.152Z,7.47
2022-12-13T06:25:32.397Z,7.61
2022-12-13T06:30:43.241Z,7.61
2022-12-13T06:35:46.133Z,7.62
2022-12-13T06:40:54.618Z,7.62
2022-12-13T06:46:05.388Z,7.77
2022-12-13T06:51:33.740Z,7.77
2022-12-13T06:56:23.279Z,7.67
2022-12-13T07:01:38.408Z,7.68
2022-12-13T07:06:40.889Z,7.68
2022-12-13T07:11:52.839Z,7.8
2022-12-13T07:17:04.107Z,7.8
2022-12-13T07:22:06.536Z,7.53
2022-12-13T07:27:14.775Z,7.53
2022-12-13T07:32:28.182Z,7.36
2022-12-13T07:37:44.256Z,7.36
2022-12-13T07:42:59.859Z,7.49
2022-12-13T07:48:15.365Z,7.49
2022-12-13T07:53:33.327Z,7.27
2022-12-13T07:58:48.228Z,7.27
2022-12-13T08:04:03.117Z,7.59
2022-12-13T08:09:19.352Z,7.59
2022-12-13T08:14:34.792Z,7.65
2022-12-13T08:19:50.336Z,7.65
2022-12-13T08:25:05.862Z,7.58
2022-12-13T08:30:22.025Z,7.58
2022-12-13T08:35:35.610Z,9.1
2022-12-13T08:40:00.465Z,9.1
2022-12-13T08:44:32.882Z,8.24
2022-12-13T08:49:41.354Z,8.24
2022-12-13T08:54:51.172Z,7.8
2022-12-13T08:59:59.576Z,7.8
2022-12-13T09:05:09.408Z,8.06
2022-12-13T09:10:28.226Z,8.06
2022-12-13T09:15:35.498Z,11.02
2022-12-13T09:22:02.348Z,11.02
2022-12-13T09:26:37.995Z,7.88
2022-12-13T09:30:55.621Z,7.88
2022-12-13T09:36:04.086Z,7.78
2022-12-13T09:41:30.128Z,7.78
2022-12-13T09:46:24.595Z,8.13
2022-12-13T09:52:22.723Z,8.13
2022-12-13T09:56:41.849Z,8.09
2022-12-13T10:01:51.284Z,7.89
2022-12-13T10:07:00.721Z,7.89
2022-12-13T10:12:09.209Z,8.83
2022-12-13T10:17:18.366Z,8.83
2022-12-13T10:22:27.440Z,8.27
2022-12-13T10:27:35.917Z,8.27
2022-12-13T10:32:44.398Z,7.71
2022-12-13T10:37:53.494Z,7.71
2022-12-13T10:43:02.021Z,8.42
2022-12-13T10:48:11.740Z,8.42
2022-12-13T10:53:25.224Z,8.52
2022-12-13T10:58:29.387Z,8.52
2022-12-13T11:03:39.095Z,8.08
2022-12-13T11:08:47.571Z,8.08
2022-12-13T11:13:57.339Z,8.42
2022-12-13T11:19:07.525Z,8.42
2022-12-13T11:24:23.476Z,8.01
2022-12-13T11:29:25.337Z,8.01
2022-12-13T11:34:34.501Z,8.06
2022-12-13T11:39:44.877Z,8.06
2022-12-13T11:44:54.017Z,7.94
2022-12-13T11:50:03.106Z,7.94
2022-12-13T11:55:12.863Z,7.78
2022-12-13T12:00:35.817Z,7.78
2022-12-13T12:05:33.058Z,7.52
2022-12-13T12:10:50.713Z,7.52
2022-12-13T12:15:55.985Z,7.74
2022-12-13T12:21:00.406Z,7.74
2022-12-13T12:26:08.208Z,7.65
2022-12-13T12:28:46.339Z,7.65
2022-12-13T12:33:56.701Z,7.45
2022-12-13T12:39:07.732Z,7.45
2022-12-13T12:44:17.528Z,7.72
2022-12-13T12:49:28.167Z,7.72
2022-12-13T12:54:37.073Z,7.62
2022-12-13T12:59:46.767Z,7.62
2022-12-13T13:04:57.834Z,7.77
2022-12-13T13:10:27.731Z,7.77
2022-12-13T13:15:24.250Z,7.38
2022-12-13T13:20:28.623Z,7.38
2022-12-13T13:26:36.923Z,7.76
2022-12-13T13:30:46.932Z,7.76
2022-12-13T13:35:57.017Z,7.47
2022-12-13T13:41:05.506Z,7.47
2022-12-13T13:46:14.612Z,7.61
2022-12-13T13:51:22.516Z,7.61
2022-12-13T13:56:32.214Z,7.82
2022-12-13T14:01:42.375Z,7.82
2022-12-13T14:06:51.737Z,7.62
2022-12-13T14:12:01.792Z,7.62
2022-12-13T14:17:09.992Z,7.73
2022-12-13T14:22:19.759Z,7.62
2022-12-13T14:27:30.176Z,7.62
2022-12-13T14:32:38.628Z,7.49
2022-12-13T14:37:48.023Z,7.49
2022-12-13T14:42:56.224Z,7.66
2022-12-13T14:48:05.365Z,7.66
2022-12-13T14:53:21.183Z,7.8
2022-12-13T14:58:36.066Z,7.8
2022-12-13T15:04:00.135Z,7.76
2022-12-13T15:09:07.109Z,7.76
2022-12-13T15:14:22.627Z,8.13
2022-12-13T15:19:40.442Z,8.13
2022-12-13T15:24:54.139Z,8.02
2022-12-13T15:30:09.216Z,8.02
2022-12-13T15:35:24.079Z,8.14
2022-12-13T15:40:43.734Z,8.14
2022-12-13T15:45:55.115Z,7.94
2022-12-13T15:51:09.344Z,7.94
2022-12-13T15:56:24.873Z,7.99
2022-12-13T16:00:51.720Z,7.99
2022-12-13T16:05:22.171Z,8
2022-12-13T16:10:30.612Z,8
2022-12-13T16:15:48.703Z,7.88
2022-12-13T16:20:50.645Z,7.88
2022-12-13T16:26:09.533Z,8.13
2022-12-13T16:31:09.650Z,8.13
2022-12-13T16:36:18.829Z,7.88
2022-12-13T16:41:28.477Z,7.88
2022-12-13T16:47:49.574Z,7.57
2022-12-13T16:51:49.699Z,7.57
2022-12-13T16:56:56.572Z,7.79
2022-12-13T17:02:05.315Z,7.79
2022-12-13T17:07:14.765Z,7.74
2022-12-13T17:12:23.885Z,7.74
2022-12-13T17:17:33.678Z,7.7
2022-12-13T17:22:41.611Z,7.67
2022-12-13T17:27:49.961Z,7.67
2022-12-13T17:32:59.138Z,7.73
2022-12-13T17:38:08.223Z,7.73
2022-12-13T17:43:36.195Z,7.73
2022-12-13T17:48:42.008Z,7.73
2022-12-13T17:53:37.543Z,7.31
2022-12-13T17:58:45.966Z,7.31
2022-12-13T18:03:55.110Z,7.57
2022-12-13T18:09:05.508Z,7.57
2022-12-13T18:14:14.625Z,7.62
2022-12-13T18:19:23.077Z,7.62
2022-12-13T18:24:32.238Z,7.69
2022-12-13T18:29:55.819Z,7.69
2022-12-13T18:34:55.019Z,7.65
2022-12-13T18:39:59.840Z,7.65
2022-12-13T18:45:10.009Z,7.53
2022-12-13T18:50:19.751Z,7.53
2022-12-13T18:55:28.863Z,7.73
2022-12-13T19:00:38.023Z,7.73
2022-12-13T19:05:49.333Z,7.79
2022-12-13T19:11:05.102Z,7.79
2022-12-13T19:16:25.011Z,7.95
2022-12-13T19:21:35.356Z,7.95
2022-12-13T19:26:51.460Z,7.78
2022-12-13T19:32:06.305Z,7.78
2022-12-13T19:37:21.218Z,7.88
2022-12-13T19:42:37.985Z,7.88
2022-12-13T19:47:52.956Z,7.72
2022-12-13T19:53:10.090Z,7.72
2022-12-13T19:58:23.264Z,7.82
2022-12-13T20:03:38.240Z,7.82
2022-12-13T20:08:53.027Z,7.72
2022-12-13T20:12:41.502Z,7.72
2022-12-13T20:17:50.333Z,7.93
2022-12-13T20:23:00.070Z,7.92
2022-12-13T20:28:16.755Z,7.92
2022-12-13T20:33:18.301Z,7.81
2022-12-13T20:38:28.108Z,7.81
2022-12-13T20:43:36.772Z,7.72
2022-12-13T20:48:45.651Z,7.72
2022-12-13T20:53:54.159Z,7.73
2022-12-13T20:59:03.930Z,7.73
2022-12-13T21:04:12.373Z,7.86
2022-12-13T21:09:20.215Z,7.86
2022-12-13T21:14:28.701Z,7.43
2022-12-13T21:19:40.845Z,7.43
2022-12-13T21:24:47.603Z,7.37
2022-12-13T21:29:57.378Z,7.37
2022-12-13T21:35:05.897Z,7.35
2022-12-13T21:40:14.278Z,7.35
2022-12-13T21:45:23.061Z,7.66
2022-12-13T21:50:32.538Z,7.66
2022-12-13T21:55:40.537Z,7.73
2022-12-13T22:00:50.598Z,7.73
2022-12-13T22:05:59.890Z,7.76
2022-12-13T22:11:09.695Z,7.76
2022-12-13T22:16:18.978Z,7.56
2022-12-13T22:21:27.919Z,7.56
2022-12-13T22:26:37.664Z,7.56
2022-12-13T22:31:49.802Z,7.56
2022-12-13T22:36:54.615Z,7.41
2022-12-13T22:42:05.018Z,7.41
2022-12-13T22:47:13.552Z,7.47
2022-12-13T22:52:34.354Z,7.47
2022-12-13T22:57:32.366Z,7.38
2022-12-13T23:02:41.169Z,7.38
2022-12-13T23:07:55.409Z,7.37
2022-12-13T23:13:10.335Z,7.37
2022-12-13T23:18:25.525Z,7.26
2022-12-13T23:23:40.094Z,7.1
2022-12-13T23:28:55.595Z,7.1
2022-12-13T23:34:11.115Z,7.15
2022-12-13T23:39:27.299Z,7.15
2022-12-13T23:44:44.104Z,7.24
2022-12-13T23:49:59.386Z,7.24
2022-12-13T23:55:13.860Z,7.2
